Time;durP1;ratioP1;P1;durP2;ratioP2;P2;SDS_P1;SDS_P2;PMS_P1;PMS_P2;Temp;Humidity;BMP_temperature;BMP_pressure;BME280_temperature;BME280_humidity;BME280_pressure;Samples;Min_cycle;Max_cycle;Signal;HPM_P1;HPM_P2
2022/09/05 00:00:34;;;;;;;0.00;0.00;;;25.30;53.20;;;;;;4170455;28;20055;-67
2022/09/05 00:03:30;;;;;;;0.00;0.00;;;25.20;53.20;;;;;;4150010;28;20061;-66
2022/09/05 00:06:18;;;;;;;0.00;0.00;;;25.20;53.20;;;;;;4152034;28;20514;-67
2022/09/05 00:09:12;;;;;;;0.30;0.30;;;25.20;53.30;;;;;;4149171;28;20078;-67
2022/09/05 00:11:58;;;;;;;0.00;0.00;;;25.20;53.40;;;;;;4144438;28;20451;-66
2022/09/05 00:15:01;;;;;;;0.40;0.30;;;25.20;53.50;;;;;;4167715;28;20122;-66
2022/09/05 00:18:19;;;;;;;0.00;0.00;;;25.20;53.40;;;;;;4152634;28;20098;-66
2022/09/05 00:21:49;;;;;;;0.00;0.00;;;25.20;53.40;;;;;;4162071;28;20088;-67
2022/09/05 00:25:02;;;;;;;0.17;0.17;;;25.20;53.50;;;;;;4164520;28;20056;-67
2022/09/05 00:28:17;;;;;;;0.08;0.08;;;25.20;53.50;;;;;;4135638;28;20119;-67
2022/09/05 00:31:30;;;;;;;0.28;0.28;;;25.20;53.50;;;;;;4159829;28;20565;-67
2022/09/05 00:35:02;;;;;;;0.00;0.00;;;25.20;53.50;;;;;;4168511;28;20060;-66
2022/09/05 00:37:46;;;;;;;0.00;0.00;;;25.20;53.50;;;;;;4149711;28;20155;-67
2022/09/05 00:40:32;;;;;;;0.30;0.30;;;25.20;53.50;;;;;;4168350;28;20076;-67
2022/09/05 00:43:21;;;;;;;0.00;0.00;;;25.20;53.50;;;;;;4162345;28;20110;-68
2022/09/05 00:46:09;;;;;;;0.20;0.20;;;25.20;53.50;;;;;;4161360;28;20528;-67
2022/09/05 00:49:10;;;;;;;0.45;0.45;;;25.20;53.50;;;;;;4165377;28;20095;-67
2022/09/05 00:52:00;;;;;;;0.00;0.00;;;25.20;53.50;;;;;;4146581;28;20056;-66
2022/09/05 00:54:58;;;;;;;0.00;0.00;;;25.20;53.50;;;;;;4163430;28;20412;-67
2022/09/05 00:58:01;;;;;;;0.05;0.05;;;25.10;53.50;;;;;;4144089;28;20164;-71
2022/09/05 01:00:51;;;;;;;0.00;0.00;;;25.20;53.60;;;;;;4165240;28;20049;-68
2022/09/05 01:03:52;;;;;;;0.00;0.00;;;25.20;53.70;;;;;;4145228;28;20582;-68
2022/09/05 01:06:59;;;;;;;0.00;0.00;;;25.10;53.70;;;;;;4155277;28;20064;-67
2022/09/05 01:09:55;;;;;;;0.10;0.10;;;25.10;53.80;;;;;;4153822;28;20554;-68
2022/09/05 01:12:55;;;;;;;2.55;0.85;;;25.10;53.80;;;;;;4160722;28;20117;-66
2022/09/05 01:15:48;;;;;;;0.00;0.00;;;25.10;53.80;;;;;;4166573;28;20235;-67
2022/09/05 01:18:47;;;;;;;0.00;0.00;;;25.10;53.80;;;;;;4162966;28;20596;-67
2022/09/05 01:22:13;;;;;;;0.08;0.08;;;25.10;53.90;;;;;;4161442;28;20072;-68
2022/09/05 01:25:11;;;;;;;0.00;0.00;;;25.00;53.90;;;;;;4130578;28;20428;-68
2022/09/05 01:28:06;;;;;;;4.65;0.90;;;25.00;53.90;;;;;;4145515;28;20060;-69
2022/09/05 01:31:17;;;;;;;0.00;0.00;;;25.00;53.90;;;;;;4162986;28;20217;-69
2022/09/05 01:34:11;;;;;;;0.00;0.00;;;25.00;54.00;;;;;;4139175;28;20098;-68
2022/09/05 01:37:01;;;;;;;0.00;0.00;;;25.00;54.00;;;;;;4156699;28;20056;-68
2022/09/05 01:39:56;;;;;;;0.20;0.20;;;25.00;54.00;;;;;;4137935;28;20059;-69
2022/09/05 01:43:15;;;;;;;0.00;0.00;;;25.00;54.00;;;;;;4152328;28;20612;-69
2022/09/05 01:46:08;;;;;;;0.68;0.68;;;25.00;54.00;;;;;;4148426;28;20056;-66
2022/09/05 01:49:23;;;;;;;0.05;0.05;;;25.00;54.00;;;;;;4151939;28;20176;-66
2022/09/05 01:52:22;;;;;;;0.00;0.00;;;25.00;54.00;;;;;;4160964;28;22520;-67
2022/09/05 01:55:39;;;;;;;0.00;0.00;;;24.90;54.00;;;;;;4150271;28;20061;-67
2022/09/05 01:58:59;;;;;;;0.15;0.15;;;25.00;54.00;;;;;;4154062;28;20063;-67
2022/09/05 02:02:11;;;;;;;0.00;0.00;;;24.90;54.00;;;;;;4146265;28;20099;-66
2022/09/05 02:05:23;;;;;;;0.00;0.00;;;25.00;54.10;;;;;;4127920;28;20056;-66
2022/09/05 02:08:52;;;;;;;0.00;0.00;;;24.90;54.00;;;;;;4152506;28;20052;-67
2022/09/05 02:11:47;;;;;;;0.65;0.65;;;24.90;54.00;;;;;;4150916;28;20068;-66
2022/09/05 02:14:42;;;;;;;0.10;0.10;;;24.90;54.00;;;;;;4149608;28;20404;-66
2022/09/05 02:20:55;;;;;;;0.00;0.00;;;24.90;54.00;;;;;;4151762;28;20060;-67
2022/09/05 02:23:47;;;;;;;0.00;0.00;;;24.90;54.10;;;;;;4130646;28;20053;-66
2022/09/05 02:26:39;;;;;;;0.13;0.13;;;24.90;54.10;;;;;;4148131;28;20123;-67
2022/09/05 02:29:41;;;;;;;0.17;0.17;;;24.90;54.10;;;;;;4146789;28;20099;-66
2022/09/05 02:32:32;;;;;;;0.00;0.00;;;24.90;54.10;;;;;;4152208;28;20420;-66
2022/09/05 02:35:24;;;;;;;0.00;0.00;;;24.90;54.20;;;;;;4141026;28;20048;-65
2022/09/05 02:38:21;;;;;;;0.85;0.85;;;24.90;54.10;;;;;;4146034;28;20110;-67
2022/09/05 02:41:31;;;;;;;0.00;0.00;;;24.90;54.00;;;;;;4146239;28;20515;-67
2022/09/05 02:44:40;;;;;;;0.05;0.05;;;24.90;54.90;;;;;;4147638;28;20419;-66
2022/09/05 02:47:56;;;;;;;0.00;0.00;;;24.80;54.00;;;;;;4149725;28;20060;-67
2022/09/05 02:50:50;;;;;;;0.00;0.00;;;24.80;54.10;;;;;;4141807;28;20107;-65
2022/09/05 02:53:55;;;;;;;1.25;0.52;;;24.80;54.10;;;;;;4142860;28;20084;-67
2022/09/05 02:57:28;;;;;;;0.30;0.30;;;24.80;54.10;;;;;;4134717;28;20184;-66
2022/09/05 03:00:39;;;;;;;0.00;0.00;;;24.80;54.10;;;;;;4136567;28;20052;-66
2022/09/05 03:03:29;;;;;;;0.00;0.00;;;24.80;54.20;;;;;;4132258;28;20136;-67
2022/09/05 03:06:30;;;;;;;0.00;0.00;;;24.80;54.20;;;;;;4130841;28;20053;-66
2022/09/05 03:09:36;;;;;;;0.00;0.00;;;24.80;54.20;;;;;;4133605;28;20053;-66
2022/09/05 03:12:52;;;;;;;0.00;0.00;;;24.80;54.20;;;;;;4124885;28;20088;-65
2022/09/05 03:16:14;;;;;;;0.00;0.00;;;24.70;54.20;;;;;;4133851;28;20065;-66
2022/09/05 03:19:36;;;;;;;0.22;0.22;;;24.80;54.30;;;;;;4135413;28;20060;-66
2022/09/05 03:23:04;;;;;;;0.45;0.45;;;24.80;54.40;;;;;;4134926;28;20060;-66
2022/09/05 03:26:35;;;;;;;0.10;0.10;;;24.70;54.30;;;;;;4143671;28;20289;-65
2022/09/05 03:29:40;;;;;;;0.20;0.20;;;24.70;54.30;;;;;;4128436;28;20057;-66
2022/09/05 03:33:36;;;;;;;0.32;0.32;;;24.70;54.40;;;;;;4134421;28;20057;-66
2022/09/05 03:36:59;;;;;;;0.10;0.10;;;24.70;55.10;;;;;;4125198;28;20088;-66
2022/09/05 03:40:33;;;;;;;0.00;0.00;;;24.70;54.40;;;;;;4128288;28;20065;-67
2022/09/05 03:43:48;;;;;;;0.00;0.00;;;24.60;54.40;;;;;;4123827;28;20080;-66
2022/09/05 03:46:53;;;;;;;0.00;0.00;;;24.60;55.10;;;;;;4124289;28;20076;-67
2022/09/05 03:49:56;;;;;;;0.00;0.00;;;24.60;54.40;;;;;;4117816;28;20136;-68
2022/09/05 03:53:47;;;;;;;;;;;;;;;;;;;;;
2022/09/05 03:57:13;;;;;;;0.05;0.05;;;24.60;54.50;;;;;;4136307;28;20057;-66
2022/09/05 04:00:32;;;;;;;0.00;0.00;;;24.60;54.50;;;;;;4141285;28;20512;-67
2022/09/05 04:03:25;;;;;;;0.00;0.00;;;24.60;54.50;;;;;;4135441;28;20065;-67
2022/09/05 04:06:48;;;;;;;0.00;0.00;;;24.50;55.20;;;;;;4136209;28;20519;-67
2022/09/05 04:09:59;;;;;;;0.80;0.80;;;24.60;54.50;;;;;;4138184;28;20500;-67
2022/09/05 04:13:02;;;;;;;0.20;0.20;;;24.50;54.50;;;;;;4136239;28;20100;-67
2022/09/05 04:16:04;;;;;;;0.00;0.00;;;24.50;54.50;;;;;;4133535;28;20184;-68
2022/09/05 04:19:13;;;;;;;0.00;0.00;;;24.50;54.50;;;;;;4130618;28;20053;-69
2022/09/05 04:22:09;;;;;;;0.00;0.00;;;24.50;54.60;;;;;;4131477;28;20189;-68
2022/09/05 04:25:09;;;;;;;0.35;0.35;;;24.50;54.60;;;;;;4123054;28;20172;-66
2022/09/05 04:27:58;;;;;;;0.00;0.00;;;24.50;54.60;;;;;;4135033;28;20056;-68
2022/09/05 04:30:51;;;;;;;0.00;0.00;;;24.50;54.60;;;;;;4124870;28;20056;-66
2022/09/05 04:33:43;;;;;;;0.20;0.20;;;24.50;54.60;;;;;;4125610;28;20107;-67
2022/09/05 04:36:31;;;;;;;0.40;0.40;;;24.40;54.60;;;;;;4140718;28;20056;-66
2022/09/05 04:39:29;;;;;;;0.00;0.00;;;24.40;54.60;;;;;;4132237;28;20056;-66
2022/09/05 04:42:31;;;;;;;;;;;;;;;;;;;;;
2022/09/05 04:45:17;;;;;;;2.45;2.25;;;24.50;54.60;;;;;;4129248;28;20132;-66
2022/09/05 04:48:07;;;;;;;;;;;24.40;54.60;;;;;;4128095;28;20504;-66
2022/09/05 04:51:09;;;;;;;0.00;0.00;;;24.40;54.60;;;;;;4133717;28;19959;-66
2022/09/05 04:54:23;;;;;;;0.00;0.00;;;24.40;54.70;;;;;;4138111;28;20143;-67
2022/09/05 04:57:53;;;;;;;1.45;1.27;;;24.40;54.70;;;;;;4133735;28;20053;-65
2022/09/05 05:01:04;;;;;;;0.00;0.00;;;24.40;54.70;;;;;;4099821;28;20196;-66
2022/09/05 05:09:48;;;;;;;0.10;0.10;;;24.40;55.10;;;;;;4117804;28;20092;-67
2022/09/05 05:14:00;;;;;;;0.00;0.00;;;24.30;55.00;;;;;;4020969;29;20147;-60
2022/09/05 05:17:15;;;;;;;0.03;0.03;;;24.30;55.00;;;;;;4074804;28;20541;-60
2022/09/05 05:26:41;;;;;;;0.05;0.05;;;24.30;55.20;;;;;;4065456;28;20057;-60
2022/09/05 05:33:44;;;;;;;0.00;0.00;;;24.30;55.20;;;;;;4031298;29;20143;-60
2022/09/05 05:36:59;;;;;;;0.00;0.00;;;24.20;55.20;;;;;;4041078;28;20216;-60
2022/09/05 05:51:05;;;;;;;0.30;0.30;;;24.10;55.00;;;;;;4043163;29;20058;-60
2022/09/05 05:54:31;;;;;;;0.13;0.13;;;24.10;55.00;;;;;;4080633;29;20070;-62
2022/09/05 06:03:24;;;;;;;0.43;0.28;;;24.10;55.00;;;;;;3996969;29;20462;-61
2022/09/05 06:07:46;;;;;;;0.00;0.00;;;24.10;55.00;;;;;;4025624;29;20058;-60
2022/09/05 06:16:38;;;;;;;0.00;0.00;;;24.10;55.00;;;;;;4072742;28;20053;-60
2022/09/05 06:20:34;;;;;;;0.20;0.20;;;24.00;54.90;;;;;;4068921;28;20135;-60
2022/09/05 06:24:26;;;;;;;0.22;0.22;;;24.00;54.90;;;;;;4110082;28;20587;-61
2022/09/05 06:27:33;;;;;;;0.00;0.00;;;24.00;54.90;;;;;;4120468;28;20128;-60
2022/09/05 06:30:21;;;;;;;0.20;0.20;;;24.00;54.90;;;;;;4108601;28;20061;-60
2022/09/05 06:33:15;;;;;;;0.00;0.00;;;24.00;55.00;;;;;;4136226;28;20057;-60
2022/09/05 06:36:13;;;;;;;0.00;0.00;;;24.00;54.90;;;;;;4137501;28;20077;-60
2022/09/05 06:39:07;;;;;;;0.05;0.05;;;24.00;55.30;;;;;;4146380;28;20052;-60
2022/09/05 06:42:10;;;;;;;0.00;0.00;;;24.00;54.90;;;;;;4150932;28;20048;-60
2022/09/05 06:45:24;;;;;;;2.00;0.82;;;24.10;54.90;;;;;;4148162;28;20411;-60
2022/09/05 06:48:16;;;;;;;0.00;0.00;;;24.10;54.90;;;;;;4146961;28;20048;-60
2022/09/05 06:51:32;;;;;;;0.38;0.38;;;24.10;54.80;;;;;;4146369;28;20121;-60
2022/09/05 06:54:53;;;;;;;0.32;0.32;;;24.10;54.80;;;;;;4148676;28;20096;-60
2022/09/05 06:58:19;;;;;;;0.00;0.00;;;24.10;54.90;;;;;;4147070;28;20511;-60
2022/09/05 07:01:03;;;;;;;0.10;0.10;;;24.10;54.80;;;;;;4141245;28;20072;-60
2022/09/05 07:04:11;;;;;;;0.10;0.10;;;24.10;54.80;;;;;;4151442;28;20057;-60
2022/09/05 07:07:21;;;;;;;0.20;0.15;;;24.10;54.90;;;;;;4147696;28;20064;-60
2022/09/05 07:10:06;;;;;;;0.00;0.00;;;24.10;54.90;;;;;;4150043;28;20405;-60
2022/09/05 07:13:18;;;;;;;0.00;0.00;;;24.10;55.00;;;;;;4145923;28;20092;-61
2022/09/05 07:16:10;;;;;;;0.00;0.00;;;24.10;55.40;;;;;;4146840;28;20056;-62
2022/09/05 07:19:03;;;;;;;0.00;0.00;;;24.10;55.50;;;;;;4146616;28;20559;-60
2022/09/05 07:21:56;;;;;;;0.10;0.10;;;24.20;55.40;;;;;;4147108;28;20183;-65
2022/09/05 07:24:44;;;;;;;0.00;0.00;;;24.20;55.30;;;;;;4151811;28;20068;-61
2022/09/05 07:27:43;;;;;;;0.00;0.00;;;24.30;55.20;;;;;;4142089;28;20187;-62
2022/09/05 07:30:50;;;;;;;0.10;0.10;;;24.30;55.10;;;;;;4146867;28;20061;-61
2022/09/05 07:33:39;;;;;;;0.00;0.00;;;24.40;55.10;;;;;;4145073;28;20079;-62
2022/09/05 07:36:32;;;;;;;0.00;0.00;;;24.50;55.00;;;;;;4115354;28;20068;-60
2022/09/05 07:39:30;;;;;;;0.00;0.00;;;24.50;54.90;;;;;;4152897;28;20060;-61
2022/09/05 07:42:21;;;;;;;0.10;0.10;;;24.60;54.80;;;;;;4159533;28;20071;-61
2022/09/05 07:45:09;;;;;;;0.00;0.00;;;24.60;54.80;;;;;;4148410;28;20047;-61
2022/09/05 07:47:59;;;;;;;0.00;0.00;;;24.70;54.80;;;;;;4147812;28;20057;-61
2022/09/05 07:50:49;;;;;;;0.05;0.05;;;24.70;54.70;;;;;;4147282;28;20053;-61
2022/09/05 07:53:53;;;;;;;0.00;0.00;;;24.80;54.70;;;;;;4147905;28;20072;-61
2022/09/05 07:56:58;;;;;;;0.00;0.00;;;24.80;54.60;;;;;;4133441;28;20196;-61
2022/09/05 08:00:09;;;;;;;0.00;0.00;;;24.80;54.50;;;;;;4123570;28;20427;-60
2022/09/05 08:03:14;;;;;;;0.63;0.63;;;24.80;54.50;;;;;;4131269;28;20057;-60
2022/09/05 08:06:01;;;;;;;0.00;0.00;;;24.80;54.40;;;;;;4130068;28;20049;-61
2022/09/05 08:08:54;;;;;;;;;;;24.90;55.10;;;;;;4142368;28;20393;-61
2022/09/05 08:12:11;;;;;;;0.00;0.00;;;24.90;54.40;;;;;;4124171;28;19968;-60
2022/09/05 08:15:04;;;;;;;0.00;0.00;;;24.90;54.30;;;;;;4125113;28;20096;-61
2022/09/05 08:18:03;;;;;;;0.00;0.00;;;25.00;54.30;;;;;;4129401;28;20069;-60
2022/09/05 08:20:57;;;;;;;0.00;0.00;;;25.00;54.30;;;;;;4131367;28;20184;-61
2022/09/05 08:23:59;;;;;;;0.00;0.00;;;25.00;54.30;;;;;;4118144;28;20543;-60
2022/09/05 08:26:45;;;;;;;0.00;0.00;;;25.00;54.20;;;;;;4135650;28;20065;-61
2022/09/05 08:29:33;;;;;;;0.00;0.00;;;25.00;54.10;;;;;;4132681;28;20053;-61
2022/09/05 08:32:20;;;;;;;0.10;0.10;;;25.10;54.20;;;;;;4131552;28;20065;-61
2022/09/05 08:35:07;;;;;;;0.00;0.00;;;25.10;54.20;;;;;;4136721;28;20703;-61
2022/09/05 08:37:52;;;;;;;0.00;0.00;;;25.10;54.20;;;;;;4135271;28;20053;-60
2022/09/05 08:40:38;;;;;;;0.35;0.20;;;25.10;54.10;;;;;;4130893;28;20052;-60
2022/09/05 08:43:30;;;;;;;0.35;0.35;;;25.20;54.10;;;;;;4136586;28;20061;-61
2022/09/05 08:46:36;;;;;;;1.15;0.75;;;25.20;54.10;;;;;;4150190;28;20445;-61
2022/09/05 08:49:36;;;;;;;0.20;0.20;;;25.20;54.10;;;;;;4131148;28;20405;-61
2022/09/05 08:52:51;;;;;;;0.22;0.22;;;25.20;54.80;;;;;;4135245;28;20052;-61
2022/09/05 08:55:45;;;;;;;0.47;0.47;;;25.20;54.10;;;;;;4149441;28;20068;-61
2022/09/05 08:58:56;;;;;;;0.00;0.00;;;25.20;54.10;;;;;;4168067;28;20179;-61
2022/09/05 09:02:25;;;;;;;0.98;0.95;;;25.20;54.10;;;;;;4151010;28;20523;-61
2022/09/05 09:06:01;;;;;;;0.00;0.00;;;25.20;54.20;;;;;;4145909;28;20064;-62
2022/09/05 09:09:13;;;;;;;0.00;0.00;;;25.30;54.30;;;;;;4172449;28;20154;-60
2022/09/05 09:11:58;;;;;;;0.00;0.00;;;25.30;54.40;;;;;;4161657;28;20506;-61
2022/09/05 09:14:56;;;;;;;0.00;0.00;;;25.30;54.30;;;;;;4149396;28;20064;-62
2022/09/05 09:17:42;;;;;;;4.38;0.47;;;25.40;54.40;;;;;;4157236;28;20055;-61
2022/09/05 09:20:36;;;;;;;0.00;0.00;;;25.40;54.30;;;;;;4158023;28;20056;-61
2022/09/05 09:23:44;;;;;;;0.35;0.35;;;25.40;54.30;;;;;;4157856;28;20056;-61
2022/09/05 09:26:34;;;;;;;0.00;0.00;;;25.50;54.30;;;;;;4157541;28;20120;-61
2022/09/05 09:29:18;;;;;;;0.00;0.00;;;25.50;54.30;;;;;;4159139;28;20056;-61
2022/09/05 09:32:04;;;;;;;0.00;0.00;;;25.60;54.20;;;;;;4159072;28;20063;-61
2022/09/05 09:34:52;;;;;;;1.83;0.80;;;25.60;54.20;;;;;;4157663;28;20483;-60
2022/09/05 09:38:17;;;;;;;0.00;0.00;;;25.60;54.10;;;;;;4156741;28;20116;-60
2022/09/05 09:41:21;;;;;;;0.00;0.00;;;25.70;54.00;;;;;;4135590;28;20057;-61
2022/09/05 09:44:44;;;;;;;0.00;0.00;;;25.70;53.90;;;;;;4158878;28;20507;-62
2022/09/05 09:48:02;;;;;;;0.30;0.30;;;25.80;53.90;;;;;;4169234;28;20247;-63
2022/09/05 09:51:03;;;;;;;0.10;0.10;;;25.80;53.80;;;;;;4138075;28;20057;-61
2022/09/05 09:54:02;;;;;;;0.00;0.00;;;25.80;53.60;;;;;;4159491;28;20056;-61
2022/09/05 09:57:14;;;;;;;0.10;0.10;;;25.90;53.60;;;;;;4159800;28;20067;-61
2022/09/05 10:00:10;;;;;;;0.55;0.55;;;25.90;54.30;;;;;;4161284;28;20060;-61
2022/09/05 10:03:14;;;;;;;1.88;1.33;;;25.90;53.40;;;;;;4158864;28;20052;-63
2022/09/05 10:07:10;;;;;;;0.30;0.30;;;26.00;53.40;;;;;;4173789;28;20056;-61
2022/09/05 10:10:41;;;;;;;2.13;0.75;;;26.10;53.40;;;;;;4102338;28;20053;-60
2022/09/05 10:14:07;;;;;;;0.10;0.10;;;26.10;54.10;;;;;;4173283;28;20052;-61
2022/09/05 10:17:22;;;;;;;0.10;0.10;;;26.10;53.30;;;;;;4171509;28;20138;-61
2022/09/05 10:20:47;;;;;;;4.30;0.93;;;26.20;53.30;;;;;;4156431;28;20485;-61
2022/09/05 10:23:49;;;;;;;0.00;0.00;;;26.20;53.70;;;;;;4164488;28;20055;-61
2022/09/05 10:27:02;;;;;;;0.10;0.10;;;26.30;53.70;;;;;;4171808;28;20059;-61
2022/09/05 10:30:08;;;;;;;2.65;0.73;;;26.30;53.60;;;;;;4160963;28;20084;-61
2022/09/05 10:33:15;;;;;;;0.90;0.90;;;26.30;53.40;;;;;;4160560;28;20126;-61
2022/09/05 10:36:23;;;;;;;1.27;1.27;;;26.40;53.40;;;;;;4157087;28;20060;-62
2022/09/05 10:39:16;;;;;;;0.00;0.00;;;26.40;53.20;;;;;;4142784;28;20599;-62
2022/09/05 10:42:07;;;;;;;0.20;0.20;;;26.40;53.20;;;;;;4130495;28;20133;-61
2022/09/05 10:44:54;;;;;;;0.98;0.98;;;26.40;53.20;;;;;;4161946;28;20405;-62
2022/09/05 10:47:43;;;;;;;0.00;0.00;;;26.40;53.20;;;;;;4144119;28;20380;-62
2022/09/05 10:50:29;;;;;;;0.10;0.10;;;26.40;53.10;;;;;;4157590;28;20134;-62
2022/09/05 10:53:26;;;;;;;0.08;0.08;;;26.50;53.10;;;;;;4172445;28;20183;-61
2022/09/05 10:56:14;;;;;;;0.08;0.08;;;26.50;52.90;;;;;;4164074;28;20165;-62
2022/09/05 10:59:00;;;;;;;0.57;0.57;;;26.50;53.50;;;;;;4162924;28;20271;-61
2022/09/05 11:02:06;;;;;;;0.08;0.08;;;26.50;52.80;;;;;;4160177;28;20191;-61
2022/09/05 11:05:18;;;;;;;0.20;0.20;;;26.60;52.80;;;;;;4152153;28;20072;-62
2022/09/05 11:08:08;;;;;;;0.40;0.40;;;26.60;52.80;;;;;;4159336;28;20091;-63
2022/09/05 11:10:58;;;;;;;0.30;0.30;;;26.70;52.70;;;;;;4159776;28;20126;-61
2022/09/05 11:13:45;;;;;;;0.00;0.00;;;26.70;52.70;;;;;;4175122;28;20060;-62
2022/09/05 11:16:33;;;;;;;0.10;0.10;;;26.70;52.80;;;;;;4163614;28;20507;-62
2022/09/05 11:19:20;;;;;;;0.00;0.00;;;26.70;52.70;;;;;;4163552;28;20154;-63
2022/09/05 11:22:03;;;;;;;0.00;0.00;;;26.80;53.50;;;;;;4171088;28;20056;-62
2022/09/05 11:24:58;;;;;;;0.13;0.13;;;26.80;52.80;;;;;;4158684;28;20424;-62
2022/09/05 11:27:42;;;;;;;0.00;0.00;;;26.80;52.80;;;;;;4160009;28;20503;-62
2022/09/05 11:30:26;;;;;;;0.17;0.17;;;26.90;52.70;;;;;;4160081;28;20491;-61
2022/09/05 11:33:38;;;;;;;0.00;0.00;;;26.90;52.70;;;;;;4160079;28;20099;-61
2022/09/05 11:36:46;;;;;;;0.30;0.30;;;26.90;52.70;;;;;;4171659;28;20075;-62
2022/09/05 11:40:18;;;;;;;0.00;0.00;;;27.00;52.70;;;;;;4158987;28;20111;-63
2022/09/05 11:43:43;;;;;;;0.10;0.10;;;27.00;52.60;;;;;;4172131;28;20502;-62
2022/09/05 11:46:32;;;;;;;0.00;0.00;;;27.00;52.60;;;;;;4159608;28;20056;-62
2022/09/05 11:49:42;;;;;;;0.00;0.00;;;27.10;52.70;;;;;;4170162;28;20064;-62
2022/09/05 11:52:41;;;;;;;;;;;27.10;53.00;;;;;;4160484;28;20048;-62
2022/09/05 11:55:41;;;;;;;0.20;0.20;;;27.10;52.90;;;;;;4173738;28;19955;-62
2022/09/05 11:58:51;;;;;;;0.00;0.00;;;27.20;53.10;;;;;;4173678;28;20056;-62
2022/09/05 12:01:42;;;;;;;0.77;0.77;;;27.20;52.90;;;;;;4161986;28;20413;-62
2022/09/05 12:04:47;;;;;;;3.60;1.20;;;27.20;52.80;;;;;;4158622;28;20401;-62
2022/09/05 12:08:00;;;;;;;0.20;0.20;;;27.20;52.50;;;;;;4170514;28;20064;-62
2022/09/05 12:10:58;;;;;;;1.13;1.08;;;27.30;53.20;;;;;;4146631;28;20443;-62
2022/09/05 12:13:46;;;;;;;0.00;0.00;;;27.30;52.50;;;;;;4144922;28;20044;-62
2022/09/05 12:16:48;;;;;;;0.30;0.30;;;27.40;52.50;;;;;;4169080;28;20527;-62
2022/09/05 12:19:35;;;;;;;0.00;0.00;;;27.40;53.10;;;;;;4174812;28;20055;-62
2022/09/05 12:22:33;;;;;;;0.00;0.00;;;27.40;52.30;;;;;;4161908;28;20060;-62
2022/09/05 12:25:24;;;;;;;0.13;0.13;;;27.40;52.40;;;;;;4153858;28;20052;-62
2022/09/05 12:28:30;;;;;;;;;;;27.50;52.30;;;;;;4158425;28;20504;-62
2022/09/05 12:31:37;;;;;;;0.03;0.03;;;27.50;52.30;;;;;;4169986;28;19930;-63
2022/09/05 12:34:49;;;;;;;0.00;0.00;;;27.50;52.20;;;;;;4157901;28;20142;-62
2022/09/05 12:37:55;;;;;;;0.08;0.08;;;27.50;52.00;;;;;;4158765;28;20055;-62
2022/09/05 12:41:04;;;;;;;0.00;0.00;;;27.60;52.10;;;;;;4171355;28;20059;-62
2022/09/05 12:44:35;;;;;;;0.00;0.00;;;27.60;52.00;;;;;;4157512;28;20859;-62
2022/09/05 12:47:28;;;;;;;0.00;0.00;;;27.70;52.10;;;;;;4161330;28;20056;-62
2022/09/05 12:50:16;;;;;;;0.00;0.00;;;27.70;52.00;;;;;;4159659;28;20052;-62
2022/09/05 12:53:02;;;;;;;0.00;0.00;;;27.70;52.80;;;;;;4174333;28;20044;-61
2022/09/05 12:55:51;;;;;;;0.00;0.00;;;27.70;52.00;;;;;;4159247;28;20059;-61
2022/09/05 12:58:50;;;;;;;0.00;0.00;;;27.80;52.00;;;;;;4167180;28;20134;-62
2022/09/05 13:02:02;;;;;;;0.15;0.13;;;27.80;51.80;;;;;;4173066;28;20171;-62
2022/09/05 13:05:11;;;;;;;0.00;0.00;;;27.80;51.70;;;;;;4173150;28;20056;-61
2022/09/05 13:07:57;;;;;;;0.00;0.00;;;27.90;51.70;;;;;;4146743;28;20060;-65
2022/09/05 13:10:42;;;;;;;0.00;0.00;;;27.90;51.60;;;;;;4163028;28;20408;-62
2022/09/05 13:13:52;;;;;;;0.10;0.10;;;27.90;51.40;;;;;;4170770;28;20442;-62
2022/09/05 13:17:00;;;;;;;0.30;0.30;;;28.00;51.50;;;;;;4156566;28;20057;-62
2022/09/05 13:19:50;;;;;;;0.00;0.00;;;28.00;51.50;;;;;;4157892;28;20052;-62
2022/09/05 13:22:37;;;;;;;0.10;0.10;;;28.00;51.50;;;;;;4149614;28;20352;-62
2022/09/05 13:25:25;;;;;;;0.00;0.00;;;28.00;51.50;;;;;;4167801;28;20057;-61
2022/09/05 13:28:09;;;;;;;0.08;0.08;;;28.00;51.40;;;;;;4168790;28;20059;-61
2022/09/05 13:30:57;;;;;;;0.05;0.05;;;28.10;51.40;;;;;;4161430;28;20063;-61
2022/09/05 13:34:07;;;;;;;0.10;0.10;;;28.10;51.40;;;;;;4157540;28;20099;-64
2022/09/05 13:37:16;;;;;;;0.00;0.00;;;28.10;51.20;;;;;;4153605;28;20059;-62
2022/09/05 13:40:21;;;;;;;0.90;0.90;;;28.10;51.20;;;;;;4174073;28;20051;-64
2022/09/05 13:43:08;;;;;;;0.20;0.20;;;28.10;50.90;;;;;;4162610;28;20121;-62
2022/09/05 13:46:05;;;;;;;0.00;0.00;;;28.10;51.20;;;;;;4157933;28;20056;-62
2022/09/05 13:48:50;;;;;;;0.25;0.25;;;28.10;51.10;;;;;;4157673;28;20114;-62
2022/09/05 13:52:04;;;;;;;0.00;0.00;;;28.10;51.10;;;;;;4145723;28;20537;-62
2022/09/05 13:54:50;;;;;;;0.00;0.00;;;28.10;50.90;;;;;;4157928;28;20199;-63
2022/09/05 13:57:36;;;;;;;0.00;0.00;;;28.10;50.90;;;;;;4144765;28;20051;-62
2022/09/05 14:00:52;;;;;;;0.00;0.00;;;28.20;51.00;;;;;;4157828;28;20749;-62
2022/09/05 14:03:44;;;;;;;0.00;0.00;;;28.10;50.90;;;;;;4157482;28;20198;-62
2022/09/05 14:06:59;;;;;;;0.00;0.00;;;28.20;51.00;;;;;;4156835;28;20704;-64
2022/09/05 14:10:46;;;;;;;23.17;1.17;;;28.20;50.90;;;;;;4161740;28;20059;-63
2022/09/05 14:13:33;;;;;;;0.00;0.00;;;28.20;50.90;;;;;;4094649;28;20066;-64
2022/09/05 14:16:21;;;;;;;0.10;0.10;;;28.20;51.00;;;;;;4157928;28;20068;-65
2022/09/05 14:22:08;;;;;;;0.20;0.20;;;28.20;51.00;;;;;;4157504;28;20453;-64
2022/09/05 14:24:49;;;;;;;0.03;0.03;;;28.20;50.70;;;;;;4157744;28;20053;-65
2022/09/05 14:27:35;;;;;;;0.10;0.10;;;28.30;50.80;;;;;;4161930;28;20052;-66
2022/09/05 14:30:38;;;;;;;0.25;0.25;;;28.30;50.80;;;;;;4163256;28;20059;-63
2022/09/05 14:33:54;;;;;;;0.03;0.03;;;28.30;50.60;;;;;;4176797;28;20052;-65
2022/09/05 14:37:03;;;;;;;0.00;0.00;;;28.40;50.20;;;;;;4163946;28;20052;-64
2022/09/05 14:40:44;;;;;;;0.00;0.00;;;28.40;50.30;;;;;;4160777;28;20403;-66
2022/09/05 14:44:04;;;;;;;0.43;0.43;;;28.40;51.20;;;;;;4154992;28;20055;-64
2022/09/05 14:47:06;;;;;;;0.00;0.00;;;28.40;50.40;;;;;;4173096;28;20122;-66
2022/09/05 14:50:06;;;;;;;0.00;0.00;;;28.40;50.50;;;;;;4160565;28;20455;-64
2022/09/05 14:53:01;;;;;;;0.00;0.00;;;28.40;50.50;;;;;;4148645;28;20106;-66
2022/09/05 14:56:11;;;;;;;0.00;0.00;;;28.50;50.70;;;;;;4146714;28;20060;-65
2022/09/05 14:59:29;;;;;;;0.00;0.00;;;28.50;50.40;;;;;;4168143;28;20556;-64
2022/09/05 15:02:40;;;;;;;0.00;0.00;;;28.50;50.40;;;;;;4159169;28;20056;-67
2022/09/05 15:05:48;;;;;;;0.10;0.10;;;28.50;50.30;;;;;;4120637;28;20058;-66
2022/09/05 15:08:33;;;;;;;0.00;0.00;;;28.50;50.40;;;;;;4147109;28;20578;-66
2022/09/05 15:11:36;;;;;;;0.40;0.40;;;28.50;50.50;;;;;;4156953;28;20051;-65
2022/09/05 15:14:38;;;;;;;1.25;0.63;;;28.60;50.70;;;;;;4169164;28;20055;-64
2022/09/05 15:17:23;;;;;;;0.30;0.30;;;28.60;50.70;;;;;;4152537;28;20098;-65
2022/09/05 15:20:07;;;;;;;0.00;0.00;;;28.60;50.60;;;;;;4176934;28;20060;-63
2022/09/05 15:22:52;;;;;;;0.00;0.00;;;28.60;50.40;;;;;;4176217;28;20118;-63
2022/09/05 15:25:44;;;;;;;0.00;0.00;;;28.70;50.60;;;;;;4160314;28;20408;-66
2022/09/05 15:28:35;;;;;;;0.15;0.15;;;28.60;50.40;;;;;;4159350;28;20119;-67
2022/09/05 15:31:26;;;;;;;0.10;0.10;;;28.70;50.70;;;;;;4175313;28;20102;-66
2022/09/05 15:34:25;;;;;;;0.00;0.00;;;28.70;50.30;;;;;;4161324;28;20053;-68
2022/09/05 15:37:27;;;;;;;0.00;0.00;;;28.70;49.90;;;;;;4147241;28;20053;-68
2022/09/05 15:40:12;;;;;;;0.00;0.00;;;28.70;50.30;;;;;;4157472;28;20048;-68
2022/09/05 15:43:03;;;;;;;0.00;0.00;;;28.70;50.50;;;;;;4164745;28;20044;-67
2022/09/05 15:45:48;;;;;;;0.00;0.00;;;28.70;50.00;;;;;;4176057;28;20056;-66
2022/09/05 15:48:34;;;;;;;0.00;0.00;;;28.70;50.00;;;;;;4163115;28;20515;-65
2022/09/05 15:51:31;;;;;;;0.00;0.00;;;28.70;49.80;;;;;;4155750;28;20207;-67
2022/09/05 15:54:20;;;;;;;0.00;0.00;;;28.80;50.00;;;;;;4160377;28;20057;-68
2022/09/05 15:57:09;;;;;;;0.00;0.00;;;28.70;50.20;;;;;;4159490;28;20416;-67
2022/09/05 15:59:57;;;;;;;0.00;0.00;;;28.70;50.30;;;;;;4157996;28;20065;-67
2022/09/05 16:02:44;;;;;;;0.05;0.05;;;28.80;50.10;;;;;;4159616;28;20056;-67
2022/09/05 16:05:25;;;;;;;1.55;0.45;;;28.80;50.30;;;;;;4175607;28;20182;-65
2022/09/05 16:08:31;;;;;;;1.35;1.25;;;28.80;50.30;;;;;;4147829;28;20076;-65
2022/09/05 16:11:40;;;;;;;0.08;0.08;;;28.80;50.30;;;;;;4145892;28;20127;-65
2022/09/05 16:14:46;;;;;;;0.15;0.15;;;28.80;50.30;;;;;;4158474;28;20365;-63
2022/09/05 16:17:52;;;;;;;0.00;0.00;;;28.80;50.60;;;;;;4140893;28;20233;-65
2022/09/05 16:20:56;;;;;;;0.00;0.00;;;28.80;50.60;;;;;;4162583;28;20106;-64
2022/09/05 16:24:02;;;;;;;0.00;0.00;;;28.80;50.70;;;;;;4161592;28;20052;-66
2022/09/05 16:26:51;;;;;;;0.00;0.00;;;28.80;50.60;;;;;;4145344;28;20061;-64
2022/09/05 16:29:38;;;;;;;0.00;0.00;;;28.80;50.80;;;;;;4142284;28;20615;-65
2022/09/05 16:32:26;;;;;;;0.17;0.17;;;28.80;50.70;;;;;;4129701;28;20107;-63
2022/09/05 16:35:11;;;;;;;0.10;0.10;;;28.70;50.70;;;;;;4151759;28;20055;-65
2022/09/05 16:38:16;;;;;;;0.00;0.00;;;28.80;50.80;;;;;;4147618;28;20060;-66